^^
Datos históricos de la estación: Murcia-Puente Tocinos
Diario Informe para Diciembre 08, 2021 Unidades:  Ingés    Métrico   Ambas
Diario Semanal Mensual Anual
  Máxima: Mínima: Promedio:
Temperatura: 65.5 °F 53.6 °F 59.2 °F
Punto de rocio: 46.8 °F 32 °F 38.8 °F
Humedad: 74% 33% 48%
Velocidad viento: 22.5mph 1.8mph 7.7mph
Racha viento: 40.3mph - -
Viento- - SO
Presión: 30.1 in 29.8 in -
Precipitación: 0 in    
 
 
Tabla de datos para Diciembre 08, 2021
Hora Temperatura Punto de rocio Presión Viento Velocidad viento Racha viento Humedad Intensidad lluvia(por hora) Nubes
00:04 55 °F 46.2 °F 29.9 in SSE 4.7 mph 7.4 mph 72% 0 in
00:09 54.9 °F 46.4 °F 29.9 in SSO 4.7 mph 6.9 mph 73% 0 in
00:14 55 °F 46.4 °F 29.9 in SO 4.7 mph 5.9 mph 72.7% 0 in
00:19 55.8 °F 46.6 °F 29.9 in OSO 4.4 mph 6.2 mph 70.8% 0 in
00:24 55.9 °F 46.4 °F 29.9 in NO 3.6 mph 6.2 mph 70.3% 0 in
00:29 55.6 °F 46.4 °F 29.9 in NO 3.7 mph 5.8 mph 71.1% 0 in
00:34 55.2 °F 46.2 °F 29.9 in NNO 4 mph 5.8 mph 72% 0 in
00:39 54.9 °F 46.2 °F 29.9 in NO 3.7 mph 5.9 mph 72.9% 0 in
00:44 54.5 °F 46.4 °F 29.9 in Oeste 3.1 mph 7.4 mph 73.9% 0 in
00:49 54.5 °F 46.4 °F 29.9 in OSO 3.5 mph 5.9 mph 74% 0 in
00:54 54.9 °F 46.4 °F 29.9 in SO 4.3 mph 6.9 mph 73% 0 in
00:59 55.6 °F 46.2 °F 29.9 in SSO 4.7 mph 8.1 mph 70.7% 0 in
01:04 56.7 °F 46 °F 29.9 in SSO 5.4 mph 7.4 mph 67.4% 0 in
01:09 57.4 °F 45.7 °F 29.9 in SO 5.3 mph 6.9 mph 64.9% 0 in
01:14 57.7 °F 45.3 °F 29.9 in SO 5.2 mph 5.8 mph 63% 0 in
01:19 57.9 °F 45.3 °F 29.9 in SSO 4.6 mph 4.6 mph 62.9% 0 in
01:24 57.6 °F 45.5 °F 29.9 in SE 3.1 mph 5.2 mph 64.2% 0 in
01:29 56.5 °F 45 °F 29.9 in SSE 3.2 mph 7.4 mph 65.6% 0 in
01:34 55 °F 44.8 °F 29.9 in SSE 3.6 mph 9.2 mph 68.1% 0 in
01:39 54.3 °F 44.8 °F 29.9 in SSE 4.3 mph 9.7 mph 69.9% 0 in
01:44 54.1 °F 44.8 °F 29.9 in Sur 6.2 mph 8.1 mph 70.4% 0 in
01:49 54.3 °F 44.8 °F 29.9 in SSE 5.9 mph 6.9 mph 70% 0 in
01:54 54.7 °F 45 °F 29.9 in SE 5.2 mph 8.1 mph 69.6% 0 in
01:59 54.3 °F 44.6 °F 29.9 in ESE 5.2 mph 8.1 mph 69.9% 0 in
02:04 54.1 °F 44.6 °F 29.9 in ESE 5.2 mph 8.1 mph 70% 0 in
02:09 54.3 °F 44.6 °F 29.9 in ENE 4.8 mph 5.2 mph 69.5% 0 in
02:14 54.3 °F 44.4 °F 29.9 in ENE 4 mph 4.6 mph 69% 0 in
02:19 54.3 °F 44.4 °F 29.9 in ESE 3.5 mph 5.2 mph 69% 0 in
02:24 54.7 °F 44.6 °F 29.9 in SE 2.4 mph 4.6 mph 68.6% 0 in
02:29 54.9 °F 44.6 °F 29.9 in SSE 2.6 mph 4.7 mph 68% 0 in
02:34 55 °F 44.4 °F 29.9 in SSO 3.1 mph 6.9 mph 67.1% 0 in
02:39 55.6 °F 44.4 °F 29.9 in OSO 3.5 mph 9.2 mph 66.3% 0 in
02:44 56.3 °F 44.2 °F 29.9 in SO 4.7 mph 10.4 mph 63.7% 0 in
02:49 58.1 °F 43.9 °F 29.9 in SO 5.2 mph 11.8 mph 59.4% 0 in
02:54 59.5 °F 43.7 °F 29.9 in SO 6.4 mph 12.7 mph 55.7% 0 in
02:59 61 °F 43.5 °F 29.9 in SSO 7 mph 12.7 mph 52.9% 0 in
03:04 61.7 °F 43.3 °F 29.9 in SSO 8.1 mph 18.4 mph 51.1% 0 in
03:09 62.2 °F 43.3 °F 29.9 in SSO 8.5 mph 15 mph 50% 0 in
03:14 62.4 °F 43.3 °F 29.8 in SSO 9.7 mph 21.9 mph 49.6% 0 in
03:19 62.4 °F 43.5 °F 29.8 in SO 9.8 mph 17.3 mph 50% 0 in
03:24 62.1 °F 43.7 °F 29.8 in SSO 10 mph 17.5 mph 51% 0 in
03:29 62.1 °F 43.7 °F 29.8 in SSO 10.1 mph 18.1 mph 51% 0 in
03:34 62.1 °F 43.7 °F 29.8 in SSO 10.2 mph 18.4 mph 51% 0 in
03:39 62.1 °F 43.7 °F 29.9 in SSO 10.6 mph 15.2 mph 51% 0 in
03:44 61.9 °F 43.5 °F 29.9 in SO 11.4 mph 15.2 mph 51.1% 0 in
03:49 61.5 °F 43.9 °F 29.9 in SO 10.9 mph 17.3 mph 52% 0 in
03:54 61.5 °F 43.7 °F 29.9 in SSO 9.7 mph 15.2 mph 52% 0 in
03:59 61.5 °F 43.7 °F 29.9 in SSO 9.7 mph 14 mph 52% 0 in
04:04 61.5 °F 43.7 °F 29.9 in SSO 9.7 mph 16.3 mph 52% 0 in
04:09 61.5 °F 43.9 °F 29.9 in SSO 9.6 mph 16.1 mph 52.3% 0 in
04:14 61.3 °F 44.1 °F 29.8 in SSO 9.2 mph 16.1 mph 53% 0 in
04:19 61.3 °F 44.1 °F 29.8 in SSO 9.1 mph 15 mph 53% 0 in
04:24 61.2 °F 44.2 °F 29.8 in SSO 8.7 mph 12.7 mph 53.7% 0 in
04:29 61 °F 44.2 °F 29.8 in Sur 8.4 mph 10.4 mph 54% 0 in
04:34 60.6 °F 43.9 °F 29.8 in SSO 7.6 mph 9.2 mph 54% 0 in
04:39 60.4 °F 43.7 °F 29.8 in SSO 7.1 mph 8.1 mph 54% 0 in
04:44 60.3 °F 44.1 °F 29.8 in Sur 5.9 mph 7.4 mph 55% 0 in
04:49 60.3 °F 43.9 °F 29.8 in Sur 5.7 mph 10.7 mph 55% 0 in
04:54 60.1 °F 43.9 °F 29.8 in SSE 5.2 mph 8.1 mph 55% 0 in
04:59 59.7 °F 44.1 °F 29.8 in ESE 5 mph 6.9 mph 55.9% 0 in
05:04 59.5 °F 43.9 °F 29.8 in SSE 4.7 mph 4.7 mph 56% 0 in
05:09 59.4 °F 43.9 °F 29.8 in Sur 4 mph 3.5 mph 56.5% 0 in
05:14 59.2 °F 43.9 °F 29.8 in Sur 2.4 mph 4.7 mph 57% 0 in
05:19 58.6 °F 43.9 °F 29.8 in NNO 2.4 mph 5.9 mph 57.9% 0 in
05:24 58.5 °F 44.1 °F 29.8 in NNO 2.4 mph 7.4 mph 58.8% 0 in
05:29 58.3 °F 44.1 °F 29.8 in NNO 2.5 mph 5.8 mph 59% 0 in
05:34 58.3 °F 44.1 °F 29.8 in NO 2.9 mph 4.6 mph 59% 0 in
05:39 58.1 °F 43.9 °F 29.8 in NO 2.7 mph 6.2 mph 59% 0 in
05:44 57.9 °F 43.7 °F 29.8 in ONO 2 mph 5.9 mph 59% 0 in
05:49 57.7 °F 43.9 °F 29.8 in ONO 2.2 mph 5.8 mph 59.6% 0 in
05:54 57.7 °F 43.9 °F 29.8 in ONO 2.9 mph 4.7 mph 60% 0 in
05:59 57.6 °F 43.9 °F 29.8 in NO 3 mph 5.2 mph 60% 0 in
06:04 57.4 °F 43.9 °F 29.8 in NNO 3.1 mph 5.2 mph 60.5% 0 in
06:09 57.6 °F 44.1 °F 29.8 in NNE 3.1 mph 4.6 mph 61% 0 in
06:14 57.7 °F 44.2 °F 29.8 in ENE 3.1 mph 4.6 mph 60.7% 0 in
06:19 57.7 °F 44.1 °F 29.8 in NNE 2.9 mph 4.6 mph 60% 0 in
06:24 57.7 °F 44.1 °F 29.8 in NNE 2.4 mph 6.2 mph 60.4% 0 in
06:29 57.7 °F 43.9 °F 29.8 in NNE 2.6 mph 5.8 mph 60% 0 in
06:34 57.6 °F 43.7 °F 29.8 in NNE 3.1 mph 4.7 mph 60% 0 in
06:39 57 °F 43.7 °F 29.8 in NNO 3 mph 5.2 mph 60.9% 0 in
06:44 56.7 °F 43.7 °F 29.8 in NNO 2.9 mph 4.6 mph 62% 0 in
06:49 56.3 °F 43.5 °F 29.8 in North 2.7 mph 5.2 mph 62.5% 0 in
06:54 55.9 °F 43.7 °F 29.8 in North 2.4 mph 5.2 mph 63.4% 0 in
06:59 55.6 °F 43.7 °F 29.8 in North 2.8 mph 5.2 mph 64.3% 0 in
07:04 55.4 °F 43.9 °F 29.8 in North 3.6 mph 4.6 mph 65% 0 in
07:09 55.4 °F 43.9 °F 29.8 in North 3.4 mph 4.6 mph 65% 0 in
07:14 55.6 °F 44.1 °F 29.8 in North 2.9 mph 4 mph 65% 0 in
07:19 55.8 °F 44.2 °F 29.8 in North 2.9 mph 4.6 mph 65% 0 in
07:24 55.9 °F 44.2 °F 29.8 in NNO 2.9 mph 4.6 mph 65% 0 in
07:29 55.9 °F 44.1 °F 29.8 in NO 2.8 mph 4.6 mph 64% 0 in
07:34 56.1 °F 44.1 °F 29.8 in NO 2.4 mph 4.6 mph 64% 0 in
07:39 56.1 °F 44.1 °F 29.8 in NO 2.2 mph 3.5 mph 64% 0 in
07:44 55.9 °F 43.9 °F 29.8 in NO 1.8 mph 3.5 mph 64% 0 in
07:49 55.9 °F 43.9 °F 29.8 in NO 1.8 mph 4.7 mph 64% 0 in
07:54 55.2 °F 43.5 °F 29.8 in North 1.8 mph 4.6 mph 64.6% 0 in
07:59 54.9 °F 43.7 °F 29.8 in NNE 1.9 mph 3.6 mph 66.1% 0 in
08:04 54.3 °F 43.9 °F 29.8 in SSE 2 mph 4.6 mph 67.4% 0 in
08:09 54.7 °F 44.2 °F 29.8 in Este 2.3 mph 5.2 mph 68% 0 in
08:14 54.9 °F 44.1 °F 29.8 in ENE 3.1 mph 5.8 mph 67% 0 in
08:19 55 °F 44.2 °F 29.8 in NNE 2.9 mph 4.6 mph 67% 0 in
08:24 54.9 °F 44.2 °F 29.8 in NNE 2.4 mph 4.7 mph 67% 0 in
08:29 54.9 °F 44.1 °F 29.8 in North 2.6 mph 6.2 mph 67.1% 0 in
08:34 54.1 °F 43.7 °F 29.8 in North 3.1 mph 6.9 mph 67.7% 0 in
08:39 53.6 °F 43.9 °F 29.9 in North 3.7 mph 10.4 mph 69.8% 0 in
08:44 54.3 °F 45 °F 29.9 in North 5.2 mph 6.2 mph 70.6% 0 in
08:49 55 °F 45 °F 29.9 in NNO 5 mph 7.4 mph 68.8% 0 in
08:54 55.4 °F 45.1 °F 29.9 in NO 4.3 mph 9.2 mph 68% 0 in
08:59 55.8 °F 45.3 °F 29.9 in Oeste 4.6 mph 9.2 mph 68% 0 in
09:04 56.3 °F 45.9 °F 29.9 in Oeste 5.2 mph 6.9 mph 67.8% 0 in
09:09 56.7 °F 45.9 °F 29.9 in SO 4.6 mph 5.4 mph 67% 0 in
09:14 57 °F 45.9 °F 29.9 in Sur 3.1 mph 5.8 mph 66.5% 0 in
09:19 57.4 °F 46 °F 29.9 in SSE 3.1 mph 5.9 mph 65.7% 0 in
09:24 57.7 °F 46 °F 29.9 in SE 3.1 mph 6.2 mph 65% 0 in
09:29 58.3 °F 46.2 °F 29.9 in SE 3.1 mph 4.6 mph 64.2% 0 in
09:34 58.8 °F 46.4 °F 29.9 in SSE 3.1 mph 8.1 mph 63.2% 0 in
09:39 59.2 °F 46.6 °F 29.9 in SE 3.4 mph 6.9 mph 63% 0 in
09:44 59.2 °F 46.6 °F 29.9 in SSE 4 mph 7.4 mph 63% 0 in
09:49 59.4 °F 46.8 °F 29.9 in SE 4.2 mph 7.4 mph 63% 0 in
09:54 59.7 °F 46.8 °F 29.9 in SSE 4.7 mph 7.4 mph 62.1% 0 in
09:59 60.3 °F 46.6 °F 29.9 in Sur 4.9 mph 11.5 mph 60.7% 0 in
10:04 60.4 °F 45.9 °F 29.9 in OSO 5.4 mph 15.9 mph 58.7% 0 in
10:09 61.3 °F 42.1 °F 29.9 in Oeste 6 mph 17.5 mph 49.1% 0 in
10:14 62.6 °F 38.1 °F 29.9 in Oeste 7.4 mph 24.8 mph 40.5% 0 in
10:19 63.5 °F 36.1 °F 29.9 in Oeste 9 mph 39.1 mph 36.1% 0 in
10:24 63.9 °F 35.8 °F 29.9 in Oeste 13 mph 36.8 mph 35.1% 0 in
10:29 63.9 °F 35.8 °F 29.9 in Oeste 14.6 mph 28.8 mph 35% 0 in
10:34 63.9 °F 35.8 °F 29.9 in Oeste 18.5 mph 28.4 mph 35% 0 in
10:39 63.9 °F 35.8 °F 29.9 in Oeste 18 mph 31.1 mph 35.1% 0 in
10:44 63.9 °F 36.1 °F 29.9 in Oeste 16.8 mph 28.8 mph 35.8% 0 in
10:49 63.7 °F 36.1 °F 29.9 in Oeste 15.9 mph 25.3 mph 36% 0 in
10:54 63.7 °F 36.1 °F 29.9 in Oeste 13.5 mph 23 mph 36% 0 in
10:59 63.7 °F 36.1 °F 29.9 in Oeste 13.5 mph 25.3 mph 36% 0 in
11:04 63.7 °F 36.1 °F 29.9 in Oeste 13.5 mph 24.2 mph 36% 0 in
11:09 63.7 °F 36.3 °F 29.9 in Oeste 13.2 mph 23 mph 36% 0 in
11:14 63.7 °F 36.3 °F 29.9 in Oeste 12.3 mph 23.5 mph 36% 0 in
11:19 63.9 °F 36.3 °F 29.9 in Oeste 12.7 mph 27.9 mph 36% 0 in
11:24 63.9 °F 36.3 °F 29.9 in Oeste 13.5 mph 27.9 mph 36% 0 in
11:29 63.9 °F 36.3 °F 29.9 in Oeste 13.8 mph 28.8 mph 36% 0 in
11:34 63.7 °F 36.3 °F 29.9 in Oeste 14.7 mph 31.1 mph 36.2% 0 in
11:39 63.7 °F 36.7 °F 29.9 in Oeste 15 mph 24.6 mph 36.7% 0 in
11:44 63.7 °F 36.9 °F 29.9 in Oeste 15.9 mph 26.5 mph 37% 0 in
11:49 63.9 °F 37 °F 29.9 in Oeste 15.5 mph 28.8 mph 37% 0 in
11:54 63.9 °F 37 °F 29.9 in Oeste 14.5 mph 25.3 mph 37% 0 in
11:59 63.9 °F 37 °F 29.9 in Oeste 14.7 mph 26.5 mph 36.9% 0 in
12:04 64 °F 36.5 °F 29.9 in Oeste 15.2 mph 25.3 mph 36.1% 0 in
12:09 64 °F 36.7 °F 29.9 in Oeste 15 mph 25.6 mph 36.3% 0 in
12:14 63.9 °F 37 °F 29.9 in Oeste 14.5 mph 25.3 mph 37% 0 in
12:19 63.9 °F 37.2 °F 29.9 in Oeste 14.2 mph 20.7 mph 37% 0 in
12:24 64 °F 37.2 °F 29.9 in Oeste 13.7 mph 25.3 mph 37% 0 in
12:29 64.2 °F 37.4 °F 29.9 in Oeste 13.2 mph 19 mph 37% 0 in
12:34 64.2 °F 37.4 °F 29.9 in Oeste 11.8 mph 18.4 mph 37% 0 in
12:39 64.6 °F 37.2 °F 29.9 in Oeste 11.5 mph 19 mph 36.4% 0 in
12:44 64.6 °F 37.6 °F 29.9 in ONO 10.7 mph 19 mph 36.9% 0 in
12:49 64.6 °F 36.7 °F 29.9 in OSO 11.4 mph 26.8 mph 35.6% 0 in
12:54 64.8 °F 36.3 °F 29.9 in OSO 13 mph 25.3 mph 35% 0 in
12:59 64.8 °F 36.5 °F 29.9 in OSO 13.2 mph 26.5 mph 35% 0 in
13:04 64.9 °F 36.5 °F 29.9 in OSO 13.7 mph 21.9 mph 35% 0 in
13:09 64.9 °F 37 °F 29.9 in Oeste 13 mph 19.6 mph 35.7% 0 in
13:14 65.1 °F 36.9 °F 29.9 in ONO 11.2 mph 22.3 mph 35.2% 0 in
13:19 64.9 °F 36.7 °F 29.9 in Oeste 11.5 mph 23.5 mph 35% 0 in
13:24 64.8 °F 36.7 °F 29.9 in ONO 12.3 mph 21.9 mph 35.3% 0 in
13:29 64.8 °F 37.2 °F 29.9 in ONO 12.4 mph 25.3 mph 36% 0 in
13:34 64.6 °F 37 °F 29.9 in ONO 12.5 mph 17.8 mph 36% 0 in
13:39 64.8 °F 37.2 °F 29.9 in Oeste 12.1 mph 21.9 mph 36% 0 in
13:44 64.6 °F 37 °F 29.9 in Oeste 11.2 mph 23 mph 36% 0 in
13:49 64.6 °F 36.9 °F 29.9 in Oeste 12.1 mph 26.5 mph 36% 0 in
13:54 64.6 °F 37 °F 29.9 in Oeste 14.5 mph 23.5 mph 36% 0 in
13:59 64.6 °F 37.2 °F 29.9 in ONO 14.7 mph 21.3 mph 36.2% 0 in
14:04 64.8 °F 37.2 °F 29.9 in ONO 15.2 mph 20.7 mph 36% 0 in
14:09 64.9 °F 37.4 °F 29.9 in Oeste 14.2 mph 18.5 mph 36% 0 in
14:14 65.1 °F 37.4 °F 29.9 in Oeste 11.8 mph 24.2 mph 35.7% 0 in
14:19 65.1 °F 37.2 °F 29.9 in ONO 11.9 mph 24.2 mph 35.7% 0 in
14:24 65.1 °F 37.4 °F 29.9 in ONO 12.3 mph 21.9 mph 35.9% 0 in
14:29 65.1 °F 37.4 °F 29.9 in Oeste 12 mph 21.9 mph 35.9% 0 in
14:34 65.1 °F 37.4 °F 29.9 in ONO 11.2 mph 21.3 mph 36% 0 in
14:39 65.3 °F 37.6 °F 29.9 in ONO 11.2 mph 18.5 mph 35.9% 0 in
14:44 65.3 °F 36.9 °F 29.9 in ONO 11.2 mph 23.5 mph 35% 0 in
14:49 65.1 °F 37 °F 29.9 in Oeste 11.2 mph 18.4 mph 35.4% 0 in
14:54 65.3 °F 37 °F 29.9 in Oeste 11.2 mph 20.4 mph 35.1% 0 in
14:59 65.5 °F 36.5 °F 29.9 in OSO 10.9 mph 21.9 mph 34.2% 0 in
15:04 65.3 °F 35.8 °F 29.9 in Oeste 10.2 mph 26.5 mph 33.5% 0 in
15:09 65.1 °F 36 °F 29.9 in ONO 11.3 mph 21.9 mph 34% 0 in
15:14 64.8 °F 36.3 °F 29.9 in ONO 14 mph 32.4 mph 34.6% 0 in
15:19 64.4 °F 36.1 °F 29.9 in ONO 14.5 mph 25.3 mph 35% 0 in
15:24 63.9 °F 35.8 °F 29.9 in ONO 15.9 mph 23.7 mph 35% 0 in
15:29 63.9 °F 36.3 °F 29.9 in Oeste 14.8 mph 24.2 mph 35.8% 0 in
15:34 63.9 °F 36.3 °F 29.9 in ONO 12.3 mph 25.3 mph 36% 0 in
15:39 63.3 °F 36.5 °F 29.9 in ONO 12.5 mph 24.2 mph 36.9% 0 in
15:44 63.3 °F 36.7 °F 29.9 in Oeste 13 mph 27.3 mph 37% 0 in
15:49 63.1 °F 36.7 °F 29.9 in ONO 13.6 mph 27.6 mph 37.2% 0 in
15:54 63 °F 37 °F 29.9 in ONO 15.2 mph 27.3 mph 38% 0 in
15:59 63 °F 36.3 °F 29.9 in ONO 15.2 mph 27.6 mph 37.2% 0 in
16:04 62.8 °F 35.4 °F 29.9 in ONO 15.2 mph 27.6 mph 36% 0 in
16:09 62.4 °F 35.8 °F 29.9 in ONO 15.4 mph 31.7 mph 36.9% 0 in
16:14 62.2 °F 35.6 °F 29.9 in Oeste 15.9 mph 32.2 mph 37% 0 in
16:19 62.2 °F 35.2 °F 29.9 in Oeste 15.9 mph 31.1 mph 36.5% 0 in
16:24 62.2 °F 34.9 °F 29.9 in Oeste 15.9 mph 32.7 mph 36% 0 in
16:29 62.2 °F 34 °F 29.9 in ONO 16.2 mph 34.5 mph 34.8% 0 in
16:34 62.2 °F 33.4 °F 29.9 in Oeste 16.8 mph 27.9 mph 34% 0 in
16:39 62.2 °F 33.4 °F 29.9 in ONO 17.1 mph 38 mph 34% 0 in
16:44 62.1 °F 33.4 °F 29.9 in ONO 18.1 mph 40.3 mph 34% 0 in
16:49 62.1 °F 33.3 °F 29.9 in Oeste 19.3 mph 35.7 mph 34% 0 in
16:54 62.1 °F 32.9 °F 29.9 in Oeste 22.5 mph 28.8 mph 33.5% 0 in
16:59 62.1 °F 32.5 °F 29.9 in Oeste 21.4 mph 34.5 mph 33% 0 in
17:04 61.9 °F 32.4 °F 29.9 in Oeste 19.2 mph 34.2 mph 33% 0 in
17:09 61.5 °F 32.4 °F 29.9 in Oeste 18.6 mph 34.5 mph 33.5% 0 in
17:14 61.3 °F 33.1 °F 29.9 in Oeste 17 mph 28.8 mph 34.5% 0 in
17:19 61.2 °F 33.3 °F 29.9 in Oeste 16.1 mph 23 mph 35% 0 in
17:24 61.2 °F 33.4 °F 29.9 in Oeste 13.7 mph 26.5 mph 35.1% 0 in
17:29 61.2 °F 33.3 °F 29.9 in Oeste 13.9 mph 26.5 mph 35% 0 in
17:34 61.2 °F 33.3 °F 29.9 in Oeste 14.5 mph 20.7 mph 35% 0 in
17:39 61 °F 33.1 °F 29.9 in OSO 13.7 mph 21.9 mph 35% 0 in
17:44 60.8 °F 33.1 °F 29.9 in Oeste 11.4 mph 21.9 mph 35% 0 in
17:49 60.4 °F 33.3 °F 29.9 in Oeste 11.7 mph 18.4 mph 35.9% 0 in
17:54 60.4 °F 33.3 °F 30 in Oeste 12.5 mph 15 mph 36% 0 in
17:59 60.3 °F 33.6 °F 30 in OSO 10.8 mph 16.3 mph 36.6% 0 in
18:04 60.1 °F 33.6 °F 30 in Oeste 7.4 mph 22.3 mph 37% 0 in
18:09 60.1 °F 33.6 °F 30 in Oeste 8.2 mph 18.4 mph 37% 0 in
18:14 59.7 °F 33.4 °F 30 in Oeste 10.2 mph 18.4 mph 36.9% 0 in
18:19 59.7 °F 33.4 °F 30 in Oeste 10.1 mph 15 mph 37% 0 in
18:24 59.5 °F 33.3 °F 30 in OSO 9.7 mph 13.8 mph 37% 0 in
18:29 59.5 °F 33.3 °F 30 in OSO 8.8 mph 14.7 mph 37% 0 in
18:34 59.4 °F 33.1 °F 30 in OSO 6.4 mph 15 mph 37% 0 in
18:39 59.2 °F 33.3 °F 30 in Oeste 6.5 mph 14.5 mph 37.5% 0 in
18:44 59 °F 33.4 °F 30 in Oeste 6.9 mph 15 mph 38% 0 in
18:49 59 °F 33.3 °F 30 in Oeste 7.6 mph 15 mph 38% 0 in
18:54 58.8 °F 33.3 °F 30 in Oeste 9.2 mph 9.7 mph 38% 0 in
18:59 58.6 °F 33.1 °F 30 in OSO 8.3 mph 15 mph 38% 0 in
19:04 58.6 °F 33.1 °F 30 in OSO 6.2 mph 16.1 mph 38% 0 in
19:09 58.6 °F 33.1 °F 30 in OSO 6.8 mph 13.8 mph 38% 0 in
19:14 58.5 °F 33.1 °F 30 in SO 8.5 mph 12.7 mph 38% 0 in
19:19 58.5 °F 33.6 °F 30 in SO 7.8 mph 8.1 mph 39% 0 in
19:24 58.3 °F 33.3 °F 30 in SO 5.9 mph 10 mph 39% 0 in
19:29 57.9 °F 33.1 °F 30 in SO 5.7 mph 10.7 mph 39% 0 in
19:34 57.9 °F 33.1 °F 30 in OSO 5.2 mph 11.8 mph 39% 0 in
19:39 57.9 °F 33.1 °F 30 in OSO 5.5 mph 11.5 mph 39% 0 in
19:44 57.7 °F 32.9 °F 30 in OSO 6.4 mph 8.5 mph 39% 0 in
19:49 57.7 °F 32.9 °F 30 in OSO 6.2 mph 10.4 mph 39% 0 in
19:54 57.6 °F 32.9 °F 30 in SO 5.4 mph 9.2 mph 39% 0 in
19:59 57.6 °F 32.7 °F 30 in SO 5.4 mph 9.2 mph 39% 0 in
20:04 57.6 °F 32.7 °F 30 in SSO 5.4 mph 9.7 mph 39% 0 in
20:09 57.4 °F 32.5 °F 30 in Sur 5.4 mph 8.1 mph 39% 0 in
20:14 57.4 °F 32.7 °F 30 in SSE 5.4 mph 6.9 mph 39.2% 0 in
20:19 57 °F 32.9 °F 30 in Sur 5 mph 6.9 mph 40% 0 in
20:24 56.8 °F 32.9 °F 30 in SSO 4 mph 6.9 mph 40% 0 in
20:29 56.7 °F 32.7 °F 30 in Sur 4 mph 7.4 mph 40% 0 in
20:34 56.7 °F 32.5 °F 30 in SSO 4 mph 6.2 mph 40% 0 in
20:39 56.7 °F 32.5 °F 30 in SSO 4 mph 8.7 mph 40% 0 in
20:44 56.7 °F 32.4 °F 30 in SO 4 mph 9.2 mph 39.7% 0 in
20:49 56.7 °F 32 °F 30 in SO 4.1 mph 10 mph 39% 0 in
20:54 56.7 °F 32 °F 30 in OSO 4.3 mph 10.4 mph 39% 0 in
20:59 56.8 °F 32.2 °F 30 in SO 4.4 mph 6.2 mph 39% 0 in
21:04 56.7 °F 32 °F 30 in Sur 4.7 mph 4.6 mph 39% 0 in
21:09 56.7 °F 32.2 °F 30 in Sur 4.2 mph 4.7 mph 39.4% 0 in
21:14 56.5 °F 32.4 °F 30 in SSO 2.9 mph 4.6 mph 40% 0 in
21:19 56.3 °F 32.4 °F 30 in SO 2.5 mph 2.3 mph 40.3% 0 in
21:24 56.1 °F 32.7 °F 30 in Sur 1.8 mph 4.6 mph 41% 0 in
21:29 55.8 °F 32.5 °F 30 in SSE 2 mph 5.2 mph 41% 0 in
21:34 55.6 °F 32.7 °F 30 in SSE 2.4 mph 4.6 mph 41.8% 0 in
21:39 55.4 °F 32.7 °F 30 in Sur 2.5 mph 5.2 mph 42% 0 in
21:44 55.2 °F 32.5 °F 30 in SE 2.9 mph 4 mph 42% 0 in
21:49 55.2 °F 32.5 °F 30 in SSE 3 mph 5.8 mph 42% 0 in
21:54 55 °F 32.5 °F 30 in SSE 3.1 mph 6.2 mph 42.3% 0 in
21:59 54.9 °F 32.5 °F 30 in SSE 3.4 mph 6.9 mph 42.7% 0 in
22:04 54.9 °F 32.7 °F 30 in SSE 4 mph 3.6 mph 43% 0 in
22:09 54.7 °F 32.5 °F 30 in ESE 3.4 mph 3.6 mph 43% 0 in
22:14 54.7 °F 32.5 °F 30 in ESE 2 mph 4.7 mph 43% 0 in
22:19 54.3 °F 32.7 °F 30 in SE 2.1 mph 5.2 mph 43.7% 0 in
22:24 54.1 °F 32.7 °F 30 in SE 2.4 mph 5.4 mph 44% 0 in
22:29 54 °F 32.5 °F 30 in SE 2.6 mph 6.2 mph 44% 0 in
22:34 54 °F 32.5 °F 30 in SSE 3.1 mph 5.8 mph 44% 0 in
22:39 53.8 °F 32.5 °F 30 in SSO 3 mph 6.4 mph 44.1% 0 in
22:44 53.8 °F 32.4 °F 30 in SO 2.9 mph 6.9 mph 44.1% 0 in
22:49 54 °F 32.4 °F 30 in SO 2.9 mph 5.2 mph 44% 0 in
22:54 54 °F 32 °F 30 in Sur 2.9 mph 5.9 mph 43% 0 in
22:59 54.1 °F 32.2 °F 30 in SE 3.1 mph 4.7 mph 43% 0 in
23:04 54.1 °F 32.5 °F 30 in SE 3.6 mph 4.6 mph 43.8% 0 in
23:09 54.1 °F 32.7 °F 30 in ESE 3.2 mph 4.6 mph 44% 0 in
23:14 54 °F 32.5 °F 30 in SE 2.4 mph 5.9 mph 44% 0 in
23:19 54.1 °F 32.7 °F 30 in SE 2.6 mph 4.6 mph 44% 0 in
23:24 54 °F 32.9 °F 30.1 in SE 3.1 mph 5.8 mph 44.6% 0 in
23:29 54 °F 32.9 °F 30.1 in SE 3.2 mph 6.2 mph 45% 0 in
23:34 54 °F 33.1 °F 30.1 in SE 3.6 mph 5.8 mph 45% 0 in
23:39 54 °F 33.1 °F 30.1 in SSE 3.4 mph 4.6 mph 45% 0 in
23:44 54 °F 33.1 °F 30.1 in SE 2.9 mph 4.7 mph 45% 0 in
Murcia-Puente Tocinos, Espa?a
Compliments of Weather Underground - 3 mb

La estación de MeteoMurcia.com, publica sus datos en los siguientes proyectos:

Weather Underground PWS IMURCIAP2 Meteoclimatic www.awekas.at

W3Counter
Web Analytics